Time;durP1;ratioP1;P1;durP2;ratioP2;P2;SDS_P1;SDS_P2;PMS_P1;PMS_P2;Temp;Humidity;BMP_temperature;BMP_pressure;BME280_temperature;BME280_humidity;BME280_pressure;Samples;Min_cycle;Max_cycle;Signal;HPM_P1;HPM_P2
2021/08/27 00:01:49;;;;;;;;;;;;;;;13.51;100.00;98976.59;5010918;28;19968;-80
2021/08/27 00:04:14;;;;;;;;;;;;;;;13.51;100.00;98979.16;5014052;28;20016;-80
2021/08/27 00:06:39;;;;;;;;;;;;;;;13.40;100.00;98982.22;4994213;28;19951;-80
2021/08/27 00:09:05;;;;;;;;;;;;;;;13.23;100.00;98982.94;5006625;28;19914;-80
2021/08/27 00:11:30;;;;;;;;;;;;;;;13.31;100.00;98982.63;5010926;28;19932;-80
2021/08/27 00:13:55;;;;;;;;;;;;;;;13.44;100.00;98988.13;5009431;28;19964;-80
2021/08/27 00:16:21;;;;;;;;;;;;;;;13.54;100.00;98979.03;5010617;28;19913;-81
2021/08/27 00:18:46;;;;;;;;;;;;;;;13.48;100.00;98976.69;5009178;28;19917;-82
2021/08/27 00:21:11;;;;;;;;;;;;;;;13.64;100.00;98977.72;5010814;28;19929;-80
2021/08/27 00:23:37;;;;;;;;;;;;;;;13.46;100.00;98981.13;5010672;28;19918;-80
2021/08/27 00:26:02;;;;;;;;;;;;;;;13.51;100.00;98984.34;5011562;28;19941;-81
2021/08/27 00:28:27;;;;;;;;;;;;;;;13.44;100.00;98985.53;5010294;28;20000;-81
2021/08/27 00:30:57;;;;;;;;;;;;;;;12.94;100.00;98985.00;5010227;28;19969;-82
2021/08/27 00:33:22;;;;;;;;;;;;;;;13.21;100.00;98982.16;5015084;28;19921;-81
2021/08/27 00:35:48;;;;;;;;;;;;;;;13.17;100.00;98980.59;5011505;28;19929;-80
2021/08/27 00:38:14;;;;;;;;;;;;;;;13.60;100.00;98978.75;5011308;28;19959;-82
2021/08/27 00:40:40;;;;;;;;;;;;;;;13.45;100.00;98966.50;5008660;28;19937;-80
2021/08/27 00:43:06;;;;;;;;;;;;;;;13.39;100.00;98976.22;5010622;28;19918;-80
2021/08/27 00:45:31;;;;;;;;;;;;;;;13.56;100.00;98978.03;5013259;28;19932;-81
2021/08/27 00:47:57;;;;;;;;;;;;;;;13.49;100.00;98978.41;5011037;28;19929;-80
2021/08/27 00:50:22;;;;;;;;;;;;;;;13.50;100.00;98972.28;5011752;28;19972;-81
2021/08/27 00:52:48;;;;;;;;;;;;;;;13.55;100.00;98971.19;5010575;28;19924;-81
2021/08/27 00:55:13;;;;;;;;;;;;;;;13.48;100.00;98963.75;4994242;28;19925;-80
2021/08/27 00:57:38;;;;;;;;;;;;;;;13.13;100.00;98968.69;5008698;28;20378;-81
2021/08/27 01:00:04;;;;;;;;;;;;;;;13.28;100.00;98962.06;5010443;28;19917;-81
2021/08/27 01:02:30;;;;;;;;;;;;;;;13.07;100.00;98961.19;5007572;28;19918;-81
2021/08/27 01:04:57;;;;;;;;;;;;;;;13.36;100.00;98971.19;5009723;28;19925;-80
2021/08/27 01:07:47;;;;;;;;;;;;;;;13.15;100.00;98967.72;5007823;28;19918;-82
2021/08/27 01:10:13;;;;;;;;;;;;;;;13.30;100.00;98965.44;4999244;28;19921;-81
2021/08/27 01:12:50;;;;;;;;;;;;;;;13.45;100.00;98963.91;4930266;28;1880278;-81
2021/08/27 01:15:18;;;;;;;;;;;;;;;13.34;100.00;98962.66;4994765;28;19929;-82
2021/08/27 01:17:50;;;;;;;;;;;;;;;13.57;100.00;98963.34;5012570;28;20509;-82
2021/08/27 01:20:18;;;;;;;;;;;;;;;13.61;100.00;98959.72;5010907;28;19913;-81
2021/08/27 01:22:46;;;;;;;;;;;;;;;13.67;100.00;98956.88;5009277;28;19918;-81
2021/08/27 01:25:12;;;;;;;;;;;;;;;13.35;100.00;98959.13;4995371;28;19949;-81
2021/08/27 01:27:37;;;;;;;;;;;;;;;13.44;100.00;98967.41;5011935;28;19914;-81
2021/08/27 01:30:04;;;;;;;;;;;;;;;13.29;100.00;98972.34;5009337;28;19924;-81
2021/08/27 01:32:30;;;;;;;;;;;;;;;13.19;100.00;98978.78;5007863;28;20297;-80
2021/08/27 01:34:55;;;;;;;;;;;;;;;13.48;100.00;98976.69;5011177;28;19926;-81
2021/08/27 01:37:21;;;;;;;;;;;;;;;13.73;100.00;98969.53;5007948;28;20297;-81
2021/08/27 01:39:48;;;;;;;;;;;;;;;13.30;100.00;98971.44;5010581;28;19921;-81
2021/08/27 01:42:14;;;;;;;;;;;;;;;13.27;100.00;98970.69;5010791;28;20336;-81
2021/08/27 01:44:40;;;;;;;;;;;;;;;13.14;100.00;98980.75;5012706;28;19959;-82
2021/08/27 01:47:06;;;;;;;;;;;;;;;13.14;100.00;98979.00;5012646;28;20281;-81
2021/08/27 01:49:31;;;;;;;;;;;;;;;13.06;100.00;98982.81;4992418;28;20016;-81
2021/08/27 01:51:57;;;;;;;;;;;;;;;13.06;100.00;98985.38;5012699;28;20009;-80
2021/08/27 01:54:23;;;;;;;;;;;;;;;12.83;100.00;98986.34;5007769;28;19925;-80
2021/08/27 01:56:48;;;;;;;;;;;;;;;12.76;100.00;98985.75;5009911;28;19916;-80
2021/08/27 01:59:13;;;;;;;;;;;;;;;13.01;100.00;98985.59;5011753;28;19991;-83
2021/08/27 02:01:39;;;;;;;;;;;;;;;12.84;100.00;98988.88;5009229;28;20376;-81
2021/08/27 02:04:07;;;;;;;;;;;;;;;12.81;100.00;98991.56;5012334;28;20535;-81
2021/08/27 02:06:32;;;;;;;;;;;;;;;13.00;100.00;98993.41;5010240;28;20301;-81
2021/08/27 02:08:58;;;;;;;;;;;;;;;13.12;100.00;98987.72;5010337;28;19917;-80
2021/08/27 02:11:23;;;;;;;;;;;;;;;13.02;100.00;98989.00;4995445;28;19925;-81
2021/08/27 02:13:49;;;;;;;;;;;;;;;13.01;100.00;98995.94;5010492;28;20565;-82
2021/08/27 02:16:14;;;;;;;;;;;;;;;12.95;100.00;98996.16;5011976;28;19913;-82
2021/08/27 02:18:39;;;;;;;;;;;;;;;13.04;100.00;98994.94;5010611;28;19924;-81
2021/08/27 02:21:05;;;;;;;;;;;;;;;13.04;100.00;99005.28;5007836;28;19928;-82
2021/08/27 02:23:31;;;;;;;;;;;;;;;12.79;100.00;99002.88;5006674;28;19918;-81
2021/08/27 02:25:56;;;;;;;;;;;;;;;12.89;100.00;99007.63;5008829;28;19918;-81
2021/08/27 02:28:21;;;;;;;;;;;;;;;12.82;100.00;99011.38;5012111;28;19922;-80
2021/08/27 02:30:47;;;;;;;;;;;;;;;13.03;100.00;99009.63;5011512;28;19925;-81
2021/08/27 02:33:12;;;;;;;;;;;;;;;12.91;100.00;99016.16;5011411;28;19917;-81
2021/08/27 02:35:38;;;;;;;;;;;;;;;12.71;100.00;99005.78;4992332;28;19925;-80
2021/08/27 02:38:03;;;;;;;;;;;;;;;13.15;100.00;99003.09;5009890;28;19961;-81
2021/08/27 02:40:29;;;;;;;;;;;;;;;13.29;100.00;99002.53;5008293;28;20608;-82
2021/08/27 02:42:54;;;;;;;;;;;;;;;13.20;100.00;99003.72;5010201;28;19991;-81
2021/08/27 02:45:19;;;;;;;;;;;;;;;13.19;100.00;99004.66;5011122;28;19914;-80
2021/08/27 02:47:45;;;;;;;;;;;;;;;13.45;100.00;99000.97;4993690;28;19963;-81
2021/08/27 02:50:12;;;;;;;;;;;;;;;13.39;100.00;98996.91;5012680;28;19918;-82
2021/08/27 02:52:38;;;;;;;;;;;;;;;13.56;100.00;98996.16;5010351;28;20013;-81
2021/08/27 02:55:06;;;;;;;;;;;;;;;13.25;100.00;98990.59;4994527;28;20016;-81
2021/08/27 02:57:42;;;;;;;;;;;;;;;13.78;100.00;98988.28;5009092;28;20004;-81
2021/08/27 03:00:08;;;;;;;;;;;;;;;13.54;100.00;98979.03;5007612;28;19918;-81
2021/08/27 03:02:33;;;;;;;;;;;;;;;13.11;100.00;98988.63;5011136;28;19964;-81
2021/08/27 03:05:05;;;;;;;;;;;;;;;13.38;100.00;98992.63;5008612;28;19964;-81
2021/08/27 03:07:31;;;;;;;;;;;;;;;13.30;100.00;98991.31;5014287;28;19917;-82
2021/08/27 03:10:02;;;;;;;;;;;;;;;13.19;100.00;98979.63;5011950;28;19902;-80
2021/08/27 03:12:39;;;;;;;;;;;;;;;13.23;100.00;98993.28;4997339;28;19948;-82
2021/08/27 03:15:05;;;;;;;;;;;;;;;13.26;100.00;98985.38;5009989;28;19921;-81
2021/08/27 03:17:32;;;;;;;;;;;;;;;13.47;100.00;98982.78;5010878;28;20495;-82
2021/08/27 03:20:06;;;;;;;;;;;;;;;13.33;100.00;98991.16;5013357;28;19918;-80
2021/08/27 03:22:42;;;;;;;;;;;;;;;12.97;100.00;98990.03;4995083;28;19929;-81
2021/08/27 03:25:08;;;;;;;;;;;;;;;12.76;100.00;98990.94;5011637;28;19913;-81
2021/08/27 03:27:47;;;;;;;;;;;;;;;13.02;100.00;99007.09;5013530;28;20020;-81
2021/08/27 03:30:14;;;;;;;;;;;;;;;12.83;100.00;99009.63;5015185;28;20005;-80
2021/08/27 03:32:41;;;;;;;;;;;;;;;12.93;100.00;98998.84;5012113;28;20539;-81
2021/08/27 03:35:06;;;;;;;;;;;;;;;12.80;100.00;99002.84;5015648;28;20671;-81
2021/08/27 03:37:32;;;;;;;;;;;;;;;13.06;100.00;99004.31;5012645;28;19922;-80
2021/08/27 03:39:57;;;;;;;;;;;;;;;12.94;100.00;99010.84;5013630;28;19918;-81
2021/08/27 03:42:23;;;;;;;;;;;;;;;12.86;100.00;98997.38;5011829;28;20008;-82
2021/08/27 03:44:48;;;;;;;;;;;;;;;12.86;100.00;99012.91;5014724;28;19917;-81
2021/08/27 03:47:14;;;;;;;;;;;;;;;12.80;100.00;99010.59;5011742;28;19917;-82
2021/08/27 03:49:40;;;;;;;;;;;;;;;12.77;100.00;99013.28;5010484;28;19917;-81
2021/08/27 03:52:05;;;;;;;;;;;;;;;12.72;100.00;99013.47;5015794;28;20419;-81
2021/08/27 03:54:31;;;;;;;;;;;;;;;12.93;100.00;99019.53;5016790;28;19929;-80
2021/08/27 03:56:57;;;;;;;;;;;;;;;13.02;100.00;99020.84;5014207;28;19918;-81
2021/08/27 03:59:22;;;;;;;;;;;;;;;12.80;100.00;99012.34;5011042;28;19918;-81
2021/08/27 04:01:47;;;;;;;;;;;;;;;12.81;100.00;99016.59;5011711;28;19918;-81
2021/08/27 04:04:16;;;;;;;;;;;;;;;12.96;100.00;99013.38;5012056;28;20570;-81
2021/08/27 04:06:42;;;;;;;;;;;;;;;13.02;100.00;99014.84;5012694;28;19921;-81
2021/08/27 04:09:07;;;;;;;;;;;;;;;12.79;100.00;99016.63;5011870;28;19918;-81
2021/08/27 04:11:32;;;;;;;;;;;;;;;12.65;100.00;99026.69;5016124;28;19929;-82
2021/08/27 04:13:57;;;;;;;;;;;;;;;12.71;100.00;99034.22;5012129;28;20590;-81
2021/08/27 04:16:23;;;;;;;;;;;;;;;12.73;100.00;99022.06;5010276;28;19953;-82
2021/08/27 04:18:49;;;;;;;;;;;;;;;12.79;100.00;99026.97;5013008;28;19989;-83
2021/08/27 04:21:14;;;;;;;;;;;;;;;12.85;100.00;99031.91;5010728;28;20344;-82
2021/08/27 04:23:39;;;;;;;;;;;;;;;12.77;100.00;99028.78;5012632;28;19918;-84
2021/08/27 04:26:05;;;;;;;;;;;;;;;12.80;100.00;99033.00;5014896;28;19980;-82
2021/08/27 04:28:30;;;;;;;;;;;;;;;12.85;100.00;99026.72;5012796;28;20056;-81
2021/08/27 04:30:55;;;;;;;;;;;;;;;12.97;100.00;99026.22;5012031;28;19918;-81
2021/08/27 04:33:21;;;;;;;;;;;;;;;12.91;100.00;99018.75;5012914;28;19918;-82
2021/08/27 04:35:46;;;;;;;;;;;;;;;12.97;100.00;99020.22;5011046;28;20278;-82
2021/08/27 04:38:11;;;;;;;;;;;;;;;13.15;100.00;99018.59;5010855;28;19917;-82
2021/08/27 04:40:37;;;;;;;;;;;;;;;12.93;100.00;99014.34;5009356;28;20042;-82
2021/08/27 04:43:02;;;;;;;;;;;;;;;12.97;100.00;99015.88;5010164;28;19914;-82
2021/08/27 04:45:27;;;;;;;;;;;;;;;13.19;100.00;99017.59;4999041;28;19917;-81
2021/08/27 04:47:53;;;;;;;;;;;;;;;13.07;100.00;99015.50;5012272;28;19917;-82
2021/08/27 04:50:18;;;;;;;;;;;;;;;13.01;100.00;99026.13;5015054;28;19924;-81
2021/08/27 04:52:43;;;;;;;;;;;;;;;13.09;100.00;99022.31;5012277;28;20392;-82
2021/08/27 04:55:09;;;;;;;;;;;;;;;12.88;100.00;99031.78;5011828;28;19921;-82
2021/08/27 04:57:38;;;;;;;;;;;;;;;13.04;100.00;99031.97;5003550;28;19917;-80
2021/08/27 05:00:07;;;;;;;;;;;;;;;13.21;100.00;99023.53;4993904;28;19918;-80
2021/08/27 05:02:33;;;;;;;;;;;;;;;12.81;100.00;99043.25;4992731;28;19985;-81
2021/08/27 05:04:58;;;;;;;;;;;;;;;12.82;100.00;99047.53;5008211;28;19922;-81
2021/08/27 05:07:23;;;;;;;;;;;;;;;12.96;100.00;99047.81;5007473;28;19917;-81
2021/08/27 05:09:49;;;;;;;;;;;;;;;12.97;100.00;99046.91;5005180;28;19924;-83
2021/08/27 05:12:14;;;;;;;;;;;;;;;12.72;100.00;99047.06;5006829;28;19981;-82
2021/08/27 05:14:39;;;;;;;;;;;;;;;12.89;100.00;99043.81;5011977;28;19918;-81
2021/08/27 05:17:05;;;;;;;;;;;;;;;12.91;100.00;99042.00;5009757;28;19913;-81
2021/08/27 05:19:30;;;;;;;;;;;;;;;12.89;100.00;99041.22;4993611;28;19917;-82
2021/08/27 05:21:55;;;;;;;;;;;;;;;12.86;100.00;99036.16;5010321;28;19917;-82
2021/08/27 05:24:21;;;;;;;;;;;;;;;13.05;100.00;99036.25;5009912;28;19917;-81
2021/08/27 05:26:47;;;;;;;;;;;;;;;13.24;100.00;99038.06;5009896;28;20401;-82
2021/08/27 05:29:12;;;;;;;;;;;;;;;12.96;100.00;99029.72;4984336;28;19921;-81
2021/08/27 05:31:38;;;;;;;;;;;;;;;13.36;100.00;99033.25;5012934;28;19918;-81
2021/08/27 05:34:06;;;;;;;;;;;;;;;13.31;100.00;99024.84;4992019;28;20012;-81
2021/08/27 05:36:32;;;;;;;;;;;;;;;12.86;100.00;99033.56;5008279;28;20812;-80
2021/08/27 05:38:57;;;;;;;;;;;;;;;12.98;100.00;99040.00;5011554;28;19917;-82
2021/08/27 05:41:22;;;;;;;;;;;;;;;12.88;100.00;99041.28;5011344;28;19922;-82
2021/08/27 05:43:47;;;;;;;;;;;;;;;12.79;100.00;99052.81;5012154;28;19944;-83
2021/08/27 05:46:13;;;;;;;;;;;;;;;12.74;100.00;99049.59;5012505;28;19917;-82
2021/08/27 05:48:38;;;;;;;;;;;;;;;12.74;100.00;99049.59;5015311;28;19941;-81
2021/08/27 05:51:04;;;;;;;;;;;;;;;12.81;100.00;99056.19;5015140;28;19917;-81
2021/08/27 05:53:30;;;;;;;;;;;;;;;12.95;100.00;99064.25;5015958;28;19963;-81
2021/08/27 05:55:55;;;;;;;;;;;;;;;13.05;100.00;99063.88;5012423;28;20377;-82
2021/08/27 05:58:21;;;;;;;;;;;;;;;13.02;100.00;99058.81;4995302;28;19917;-82
2021/08/27 06:00:47;;;;;;;;;;;;;;;13.07;100.00;99062.03;5014613;28;19924;-83
2021/08/27 06:03:12;;;;;;;;;;;;;;;13.01;100.00;99067.47;5010697;28;20397;-81
2021/08/27 06:05:38;;;;;;;;;;;;;;;13.23;100.00;99068.28;4999121;28;19921;-81
2021/08/27 06:08:04;;;;;;;;;;;;;;;13.08;100.00;99071.50;5012722;28;19918;-84
2021/08/27 06:10:30;;;;;;;;;;;;;;;13.16;100.00;99072.03;5013012;28;19914;-80
2021/08/27 06:12:55;;;;;;;;;;;;;;;13.14;100.00;99063.50;5018285;28;19922;-81
2021/08/27 06:15:20;;;;;;;;;;;;;;;13.07;100.00;99060.31;5011479;28;19922;-83
2021/08/27 06:17:46;;;;;;;;;;;;;;;13.22;100.00;99060.56;5011790;28;19953;-82
2021/08/27 06:20:11;;;;;;;;;;;;;;;13.21;100.00;99066.66;5011344;28;19957;-82
2021/08/27 06:22:37;;;;;;;;;;;;;;;13.23;100.00;99068.28;5011516;28;20336;-82
2021/08/27 06:25:03;;;;;;;;;;;;;;;13.47;100.00;99063.00;5010021;28;19944;-84
2021/08/27 06:27:28;;;;;;;;;;;;;;;13.40;100.00;99059.81;5012837;28;20397;-80
2021/08/27 06:29:53;;;;;;;;;;;;;;;13.33;100.00;99066.16;5013668;28;19956;-81
2021/08/27 06:32:19;;;;;;;;;;;;;;;13.19;100.00;99062.38;5011590;28;19922;-82
2021/08/27 06:34:44;;;;;;;;;;;;;;;13.15;100.00;99070.31;5009880;28;19944;-81
2021/08/27 06:37:09;;;;;;;;;;;;;;;13.25;100.00;99063.88;5010685;28;19924;-81
2021/08/27 06:39:35;;;;;;;;;;;;;;;13.74;100.00;99053.19;5012548;28;19914;-81
2021/08/27 06:42:00;;;;;;;;;;;;;;;14.22;100.00;99054.47;5014735;28;19917;-81
2021/08/27 06:44:26;;;;;;;;;;;;;;;13.66;100.00;99048.38;5017966;28;19917;-81
2021/08/27 06:46:51;;;;;;;;;;;;;;;14.88;100.00;99043.59;5019524;28;19953;-83
2021/08/27 06:49:16;;;;;;;;;;;;;;;14.35;100.00;99031.44;5002929;28;19897;-82
2021/08/27 06:51:42;;;;;;;;;;;;;;;13.74;100.00;99048.00;5014577;28;19921;-82
2021/08/27 06:54:07;;;;;;;;;;;;;;;13.67;100.00;99049.19;5016159;28;19918;-81
2021/08/27 06:56:33;;;;;;;;;;;;;;;13.85;100.00;99050.13;5019038;28;19918;-80
2021/08/27 06:58:58;;;;;;;;;;;;;;;14.16;100.00;99040.06;5018928;28;20004;-80
2021/08/27 07:01:24;;;;;;;;;;;;;;;14.33;100.00;99038.44;5014037;28;20370;-81
2021/08/27 07:03:50;;;;;;;;;;;;;;;13.85;100.00;99055.31;5014185;28;20049;-80
2021/08/27 07:06:15;;;;;;;;;;;;;;;14.01;100.00;99056.31;5015061;28;20374;-82
2021/08/27 07:08:40;;;;;;;;;;;;;;;13.95;100.00;99056.56;4997148;28;19924;-81
2021/08/27 07:11:06;;;;;;;;;;;;;;;13.87;100.00;99048.31;5012769;28;19928;-81
2021/08/27 07:13:31;;;;;;;;;;;;;;;13.85;100.00;99055.31;5013514;28;20299;-82
2021/08/27 07:15:58;;;;;;;;;;;;;;;13.39;100.00;99064.16;5014208;28;20459;-82
2021/08/27 07:18:24;;;;;;;;;;;;;;;13.72;100.00;99061.00;4994636;28;19914;-81
2021/08/27 07:20:50;;;;;;;;;;;;;;;13.50;100.00;99070.59;5015609;28;19988;-80
2021/08/27 07:23:16;;;;;;;;;;;;;;;13.64;100.00;99067.44;5012674;28;19921;-80
2021/08/27 07:25:41;;;;;;;;;;;;;;;13.55;100.00;99073.88;5009665;28;19929;-80
2021/08/27 07:28:06;;;;;;;;;;;;;;;13.79;100.00;99072.78;5008106;28;19928;-80
2021/08/27 07:30:33;;;;;;;;;;;;;;;13.72;100.00;99071.38;4996375;28;19922;-79
2021/08/27 07:32:58;;;;;;;;;;;;;;;13.69;100.00;99068.94;5010888;28;19914;-80
2021/08/27 07:35:23;;;;;;;;;;;;;;;13.84;100.00;99062.22;5009743;28;19918;-80
2021/08/27 07:37:49;;;;;;;;;;;;;;;13.76;100.00;99078.09;5012951;28;20324;-81
2021/08/27 07:40:15;;;;;;;;;;;;;;;14.05;100.00;99069.94;5009638;28;19918;-80
2021/08/27 07:42:40;;;;;;;;;;;;;;;14.11;100.00;99067.91;5011874;28;20554;-81
2021/08/27 07:45:06;;;;;;;;;;;;;;;14.34;100.00;99064.25;5011941;28;19918;-80
2021/08/27 07:47:31;;;;;;;;;;;;;;;14.25;100.00;99058.66;5017323;28;19928;-80
2021/08/27 07:49:58;;;;;;;;;;;;;;;14.21;100.00;99053.66;5017104;28;20365;-81
2021/08/27 07:52:23;;;;;;;;;;;;;;;14.25;100.00;99054.31;5013247;28;20023;-82
2021/08/27 07:54:50;;;;;;;;;;;;;;;14.22;100.00;99055.31;5011113;28;20004;-82
2021/08/27 07:57:15;;;;;;;;;;;;;;;14.35;100.00;99052.16;5013124;28;19956;-80
2021/08/27 07:59:40;;;;;;;;;;;;;;;14.41;100.00;99050.13;4997247;28;19962;-80
2021/08/27 08:02:08;;;;;;;;;;;;;;;14.58;100.00;99051.13;5011329;28;20389;-79
2021/08/27 08:04:33;;;;;;;;;;;;;;;14.77;100.00;99048.47;5013139;28;20339;-81
2021/08/27 08:06:58;;;;;;;;;;;;;;;14.78;100.00;99044.94;5012911;28;19914;-80
2021/08/27 08:09:24;;;;;;;;;;;;;;;14.63;100.00;99049.13;4996813;28;19933;-79
2021/08/27 08:11:51;;;;;;;;;;;;;;;14.51;100.00;99050.53;5009877;28;19922;-80
2021/08/27 08:14:17;;;;;;;;;;;;;;;14.52;100.00;99047.00;5015576;28;19922;-81
2021/08/27 08:16:42;;;;;;;;;;;;;;;14.56;100.00;99045.16;5012722;28;20407;-81
2021/08/27 08:19:09;;;;;;;;;;;;;;;14.58;100.00;99049.34;5012617;28;20408;-80
2021/08/27 08:21:35;;;;;;;;;;;;;;;14.58;100.00;99041.59;5013902;28;19984;-81
2021/08/27 08:24:00;;;;;;;;;;;;;;;14.47;100.00;99046.41;4998588;28;20354;-81
2021/08/27 08:26:25;;;;;;;;;;;;;;;14.51;100.00;99044.53;5011275;28;19921;-80
2021/08/27 08:28:51;;;;;;;;;;;;;;;14.61;100.00;99046.59;5010623;28;19936;-80
2021/08/27 08:31:18;;;;;;;;;;;;;;;14.82;100.00;99044.75;5013183;28;19913;-80
2021/08/27 08:33:47;;;;;;;;;;;;;;;14.78;100.00;99045.81;5010463;28;20151;-83
2021/08/27 08:36:12;;;;;;;;;;;;;;;14.77;100.00;99045.88;4991883;28;20503;-83
2021/08/27 08:38:38;;;;;;;;;;;;;;;14.69;100.00;99048.84;5011276;28;20000;-80
2021/08/27 08:41:03;;;;;;;;;;;;;;;14.59;100.00;99048.44;5011685;28;20047;-81
2021/08/27 08:43:29;;;;;;;;;;;;;;;14.55;100.00;99052.09;5014051;28;19994;-81
2021/08/27 08:45:54;;;;;;;;;;;;;;;14.79;100.00;99044.06;5014168;28;19936;-81
2021/08/27 08:48:20;;;;;;;;;;;;;;;14.90;100.00;99044.38;4996565;28;20874;-80
2021/08/27 08:50:46;;;;;;;;;;;;;;;14.95;100.00;99044.97;5012358;28;19921;-82
2021/08/27 08:53:12;;;;;;;;;;;;;;;14.89;100.00;99040.09;5012240;28;20282;-81
2021/08/27 08:55:38;;;;;;;;;;;;;;;15.04;100.00;99043.69;5011630;28;19926;-80
2021/08/27 08:58:04;;;;;;;;;;;;;;;14.96;100.00;99044.09;5009578;28;19917;-81
2021/08/27 09:00:29;;;;;;;;;;;;;;;14.92;100.00;99045.13;5016371;28;19914;-81
2021/08/27 09:02:54;;;;;;;;;;;;;;;15.09;100.00;99051.25;5010666;28;19960;-81
2021/08/27 09:05:20;;;;;;;;;;;;;;;15.23;100.00;99053.97;5013233;28;19921;-80
2021/08/27 09:07:45;;;;;;;;;;;;;;;15.08;100.00;99045.22;5013934;28;19922;-80
2021/08/27 09:10:16;;;;;;;;;;;;;;;15.62;100.00;99039.88;4991020;28;20352;-80
2021/08/27 09:12:41;;;;;;;;;;;;;;;15.68;100.00;99029.19;5008211;28;19951;-80
2021/08/27 09:15:08;;;;;;;;;;;;;;;15.96;100.00;99022.56;4998757;28;19937;-80
2021/08/27 09:17:39;;;;;;;;;;;;;;;16.08;100.00;99024.50;5010286;28;19956;-82
2021/08/27 09:20:05;;;;;;;;;;;;;;;15.55;100.00;99021.19;5010003;28;20016;-81
2021/08/27 09:22:54;;;;;;;;;;;;;;;16.13;100.00;99017.28;4995573;28;19922;-80
2021/08/27 09:25:20;;;;;;;;;;;;;;;16.23;100.00;99008.06;4996760;28;19917;-82
2021/08/27 09:27:59;;;;;;;;;;;;;;;16.24;100.00;99004.56;5009728;28;19914;-81
2021/08/27 09:30:24;;;;;;;;;;;;;;;16.18;100.00;98999.69;5012312;28;19920;-82
2021/08/27 09:32:51;;;;;;;;;;;;;;;16.28;100.00;98992.22;5012726;28;19918;-81
2021/08/27 09:35:18;;;;;;;;;;;;;;;15.54;100.00;99013.50;5013663;28;19925;-81
2021/08/27 09:37:51;;;;;;;;;;;;;;;14.88;100.00;99030.63;5011010;28;20053;-79
2021/08/27 09:40:17;;;;;;;;;;;;;;;14.74;100.00;99046.88;4996630;28;20392;-82
2021/08/27 09:42:44;;;;;;;;;;;;;;;14.68;100.00;99046.31;5013872;28;19918;-81
2021/08/27 09:45:10;;;;;;;;;;;;;;;14.95;100.00;99055.34;5008777;28;19920;-82
2021/08/27 09:47:36;;;;;;;;;;;;;;;14.91;100.00;99059.00;5009432;28;20296;-82
2021/08/27 09:50:20;;;;;;;;;;;;;;;15.42;100.00;99065.13;5010818;28;20500;-82
2021/08/27 09:52:56;;;;;;;;;;;;;;;15.42;100.00;99070.31;5010674;28;19918;-83
2021/08/27 09:55:22;;;;;;;;;;;;;;;16.17;100.00;99057.78;5007290;28;19922;-82
2021/08/27 09:57:50;;;;;;;;;;;;;;;16.22;100.00;99055.78;5014591;28;19928;-82
2021/08/27 10:00:16;;;;;;;;;;;;;;;16.90;100.00;99057.22;4996634;28;20428;-82
2021/08/27 10:02:43;;;;;;;;;;;;;;;16.84;100.00;99026.38;5012067;28;20036;-81
2021/08/27 10:05:08;;;;;;;;;;;;;;;16.63;100.00;99029.25;5010095;28;19917;-82
2021/08/27 10:07:35;;;;;;;;;;;;;;;16.55;100.00;99028.81;5009476;28;19917;-82
2021/08/27 10:10:01;;;;;;;;;;;;;;;16.20;100.00;99036.00;5009070;28;19956;-82
2021/08/27 10:12:30;;;;;;;;;;;;;;;16.14;100.00;99031.94;5008939;28;19925;-81
2021/08/27 10:14:56;;;;;;;;;;;;;;;16.77;100.00;99019.81;5015332;28;20044;-81
2021/08/27 10:17:21;;;;;;;;;;;;;;;16.05;100.00;99032.44;5017799;28;20401;-84
2021/08/27 10:19:46;;;;;;;;;;;;;;;16.45;100.00;99025.91;4999094;28;19913;-82
2021/08/27 10:22:14;;;;;;;;;;;;;;;16.39;100.00;99022.81;5015377;28;19922;-83
2021/08/27 10:24:39;;;;;;;;;;;;;;;16.31;100.00;99029.28;4996726;28;20385;-83
2021/08/27 10:27:08;;;;;;;;;;;;;;;16.92;100.00;99014.63;5018181;28;20004;-82
2021/08/27 10:29:34;;;;;;;;;;;;;;;16.76;100.00;99012.94;5012420;28;19925;-82
2021/08/27 10:31:59;;;;;;;;;;;;;;;16.65;100.00;99004.00;5012130;28;19926;-82
2021/08/27 10:34:37;;;;;;;;;;;;;;;16.48;100.00;99012.72;5011078;28;19956;-81
2021/08/27 10:37:03;;;;;;;;;;;;;;;16.40;100.00;98995.88;5011777;28;20570;-81
2021/08/27 10:39:32;;;;;;;;;;;;;;;16.28;100.00;99000.88;5011929;28;19918;-80
2021/08/27 10:41:57;;;;;;;;;;;;;;;16.33;100.00;98995.41;5013688;28;19924;-81
2021/08/27 10:44:34;;;;;;;;;;;;;;;16.43;100.00;99006.13;5013682;28;20476;-81
2021/08/27 10:47:04;;;;;;;;;;;;;;;15.94;100.00;99008.81;5019542;28;19960;-82
2021/08/27 10:49:56;;;;;;;;;;;;;;;15.87;100.00;99009.16;5011590;28;19914;-81
2021/08/27 10:52:21;;;;;;;;;;;;;;;16.27;100.00;99006.16;5002189;28;19940;-84
2021/08/27 10:55:02;;;;;;;;;;;;;;;16.46;100.00;99001.56;5016743;28;20376;-82
2021/08/27 10:57:28;;;;;;;;;;;;;;;16.71;100.00;99001.03;4997470;28;19921;-82
2021/08/27 10:59:58;;;;;;;;;;;;;;;16.50;100.00;98997.06;5013102;28;19918;-81
2021/08/27 11:02:23;;;;;;;;;;;;;;;17.04;100.00;98994.84;5013493;28;19980;-81
2021/08/27 11:04:49;;;;;;;;;;;;;;;17.46;100.00;98989.78;4990612;28;19956;-82
2021/08/27 11:07:15;;;;;;;;;;;;;;;17.64;100.00;98985.22;5011233;28;20028;-80
2021/08/27 11:09:40;;;;;;;;;;;;;;;17.60;100.00;98981.13;5013644;28;20391;-81
2021/08/27 11:12:06;;;;;;;;;;;;;;;18.69;100.00;98979.47;5013256;28;19922;-81
2021/08/27 11:14:31;;;;;;;;;;;;;;;17.94;100.00;98974.69;4995646;28;20282;-80
2021/08/27 11:16:57;;;;;;;;;;;;;;;17.67;100.00;98977.22;5010817;28;19941;-80
2021/08/27 11:19:23;;;;;;;;;;;;;;;17.20;100.00;98980.94;5013223;28;19925;-81
2021/08/27 11:21:49;;;;;;;;;;;;;;;17.34;100.00;98978.34;5011124;28;19925;-80
2021/08/27 11:24:19;;;;;;;;;;;;;;;16.96;100.00;98976.22;5010724;28;19914;-82
2021/08/27 11:26:48;;;;;;;;;;;;;;;16.86;100.00;98975.94;4996626;28;19918;-83
2021/08/27 11:29:29;;;;;;;;;;;;;;;17.33;100.00;98979.25;5012462;28;19941;-81
2021/08/27 11:31:55;;;;;;;;;;;;;;;17.51;100.00;98970.31;5012796;28;19917;-80
2021/08/27 11:34:24;;;;;;;;;;;;;;;17.60;100.00;98968.09;5011009;28;19924;-81
2021/08/27 11:36:50;;;;;;;;;;;;;;;17.53;100.00;98971.06;5015877;28;20368;-81
2021/08/27 11:39:16;;;;;;;;;;;;;;;16.62;100.00;98975.56;5008947;28;19917;-80
2021/08/27 11:41:42;;;;;;;;;;;;;;;16.43;100.00;98973.16;5013258;28;19932;-81
2021/08/27 11:44:08;;;;;;;;;;;;;;;16.80;100.00;98963.28;5020091;28;19918;-81
2021/08/27 11:46:34;;;;;;;;;;;;;;;17.33;100.00;98963.63;5010606;28;19961;-83
2021/08/27 11:49:01;;;;;;;;;;;;;;;17.83;100.00;98959.72;5013096;28;19914;-82
2021/08/27 11:51:27;;;;;;;;;;;;;;;17.67;100.00;98956.38;5017194;28;19924;-82
2021/08/27 11:53:52;;;;;;;;;;;;;;;18.43;100.00;98944.63;5013159;28;19918;-82
2021/08/27 11:56:24;;;;;;;;;;;;;;;17.82;100.00;98946.81;5031141;28;19957;-83
2021/08/27 11:58:49;;;;;;;;;;;;;;;17.31;100.00;98960.28;5000657;28;20676;-78
2021/08/27 12:01:24;;;;;;;;;;;;;;;16.70;100.00;98962.97;5012639;28;19989;-81
2021/08/27 12:03:50;;;;;;;;;;;;;;;16.02;100.00;98959.88;4994241;28;19914;-82
2021/08/27 12:06:19;;;;;;;;;;;;;;;15.61;100.00;98987.13;5011096;28;20584;-81
2021/08/27 12:08:45;;;;;;;;;;;;;;;15.96;100.00;98983.59;4993185;28;19914;-81
2021/08/27 12:11:10;;;;;;;;;;;;;;;16.39;100.00;98989.84;5011067;28;19948;-82
2021/08/27 12:13:48;;;;;;;;;;;;;;;16.46;100.00;98996.38;5009382;28;20290;-81
2021/08/27 12:16:13;;;;;;;;;;;;;;;15.87;100.00;98998.78;5009790;28;20408;-81
2021/08/27 12:18:40;;;;;;;;;;;;;;;16.34;100.00;99006.66;5011167;28;19964;-82
2021/08/27 12:21:06;;;;;;;;;;;;;;;16.09;100.00;98997.59;5009709;28;20457;-81
2021/08/27 12:23:33;;;;;;;;;;;;;;;16.33;100.00;98997.16;4994564;28;19921;-82
2021/08/27 12:26:02;;;;;;;;;;;;;;;16.34;100.00;98997.06;5008515;28;19913;-80
2021/08/27 12:28:31;;;;;;;;;;;;;;;16.66;100.00;98994.44;5010347;28;20059;-80
2021/08/27 12:30:58;;;;;;;;;;;;;;;17.46;100.00;98992.38;5008483;28;19914;-82
2021/08/27 12:33:23;;;;;;;;;;;;;;;17.64;100.00;98985.22;5013189;28;19914;-80